sensor_id;sensor_type;location;lat;lon;timestamp;pressure;altitude;pressure_sealevel;temperature
20058;BMP180;10189;49.546;7.906;2023-02-05T00:01:20;100165.00;;;4.30
20058;BMP180;10189;49.546;7.906;2023-02-05T00:03:46;100167.00;;;4.30
20058;BMP180;10189;49.546;7.906;2023-02-05T00:06:12;100156.00;;;4.40
20058;BMP180;10189;49.546;7.906;2023-02-05T00:08:38;100159.00;;;4.50
20058;BMP180;10189;49.546;7.906;2023-02-05T00:11:04;100153.00;;;4.50
20058;BMP180;10189;49.546;7.906;2023-02-05T00:13:39;100145.00;;;4.50
20058;BMP180;10189;49.546;7.906;2023-02-05T00:16:19;100152.00;;;4.50
20058;BMP180;10189;49.546;7.906;2023-02-05T00:18:46;100151.00;;;4.60
20058;BMP180;10189;49.546;7.906;2023-02-05T00:21:13;100158.00;;;4.60
20058;BMP180;10189;49.546;7.906;2023-02-05T00:23:39;100149.00;;;4.70
20058;BMP180;10189;49.546;7.906;2023-02-05T00:26:07;100148.00;;;4.70
20058;BMP180;10189;49.546;7.906;2023-02-05T00:28:35;100150.00;;;4.80
20058;BMP180;10189;49.546;7.906;2023-02-05T00:31:14;100154.00;;;4.90
20058;BMP180;10189;49.546;7.906;2023-02-05T00:33:41;100151.00;;;4.80
20058;BMP180;10189;49.546;7.906;2023-02-05T00:36:08;100154.00;;;4.90
20058;BMP180;10189;49.546;7.906;2023-02-05T00:38:34;100149.00;;;5.00
20058;BMP180;10189;49.546;7.906;2023-02-05T00:41:01;100135.00;;;5.00
20058;BMP180;10189;49.546;7.906;2023-02-05T00:43:27;100136.00;;;5.00
20058;BMP180;10189;49.546;7.906;2023-02-05T00:45:56;100140.00;;;5.00
20058;BMP180;10189;49.546;7.906;2023-02-05T00:48:22;100145.00;;;5.00
20058;BMP180;10189;49.546;7.906;2023-02-05T00:50:51;100129.00;;;4.90
20058;BMP180;10189;49.546;7.906;2023-02-05T00:53:18;100130.00;;;5.00
20058;BMP180;10189;49.546;7.906;2023-02-05T00:55:45;100132.00;;;5.00
20058;BMP180;10189;49.546;7.906;2023-02-05T00:58:11;100132.00;;;5.00
20058;BMP180;10189;49.546;7.906;2023-02-05T01:00:38;100124.00;;;5.00
20058;BMP180;10189;49.546;7.906;2023-02-05T01:03:05;100115.00;;;5.00
20058;BMP180;10189;49.546;7.906;2023-02-05T01:05:33;100123.00;;;5.00
20058;BMP180;10189;49.546;7.906;2023-02-05T01:08:00;100112.00;;;5.00
20058;BMP180;10189;49.546;7.906;2023-02-05T01:10:26;100122.00;;;4.90
20058;BMP180;10189;49.546;7.906;2023-02-05T01:12:52;100112.00;;;4.70
20058;BMP180;10189;49.546;7.906;2023-02-05T01:15:19;100119.00;;;4.80
20058;BMP180;10189;49.546;7.906;2023-02-05T01:17:46;100108.00;;;4.80
20058;BMP180;10189;49.546;7.906;2023-02-05T01:20:14;100107.00;;;4.70
20058;BMP180;10189;49.546;7.906;2023-02-05T01:22:41;100112.00;;;4.70
20058;BMP180;10189;49.546;7.906;2023-02-05T01:25:08;100116.00;;;4.80
20058;BMP180;10189;49.546;7.906;2023-02-05T01:27:35;100117.00;;;4.70
20058;BMP180;10189;49.546;7.906;2023-02-05T01:30:04;100098.00;;;4.70
20058;BMP180;10189;49.546;7.906;2023-02-05T01:32:30;100098.00;;;4.70
20058;BMP180;10189;49.546;7.906;2023-02-05T01:34:56;100100.00;;;4.70
20058;BMP180;10189;49.546;7.906;2023-02-05T01:37:23;100098.00;;;4.80
20058;BMP180;10189;49.546;7.906;2023-02-05T01:39:49;100092.00;;;4.80
20058;BMP180;10189;49.546;7.906;2023-02-05T01:42:24;100091.00;;;4.90
20058;BMP180;10189;49.546;7.906;2023-02-05T01:47:53;100090.00;;;4.90
20058;BMP180;10189;49.546;7.906;2023-02-05T01:50:50;100078.00;;;4.90
20058;BMP180;10189;49.546;7.906;2023-02-05T01:53:25;100069.00;;;5.00
20058;BMP180;10189;49.546;7.906;2023-02-05T01:56:05;100062.00;;;5.10
20058;BMP180;10189;49.546;7.906;2023-02-05T01:58:41;100057.00;;;5.10
20058;BMP180;10189;49.546;7.906;2023-02-05T02:01:10;100057.00;;;5.10
20058;BMP180;10189;49.546;7.906;2023-02-05T02:03:38;100060.00;;;5.00
20058;BMP180;10189;49.546;7.906;2023-02-05T02:06:05;100076.00;;;4.90
20058;BMP180;10189;49.546;7.906;2023-02-05T02:08:31;100073.00;;;5.00
20058;BMP180;10189;49.546;7.906;2023-02-05T02:11:03;100057.00;;;5.00
20058;BMP180;10189;49.546;7.906;2023-02-05T02:13:33;100059.00;;;5.00
20058;BMP180;10189;49.546;7.906;2023-02-05T02:16:05;100060.00;;;5.10
20058;BMP180;10189;49.546;7.906;2023-02-05T02:18:34;100060.00;;;4.90
20058;BMP180;10189;49.546;7.906;2023-02-05T02:26:30;100042.00;;;5.00
20058;BMP180;10189;49.546;7.906;2023-02-05T02:29:01;100051.00;;;4.90
20058;BMP180;10189;49.546;7.906;2023-02-05T02:31:41;100057.00;;;4.90
20058;BMP180;10189;49.546;7.906;2023-02-05T02:34:22;100052.00;;;5.00
20058;BMP180;10189;49.546;7.906;2023-02-05T02:37:13;100034.00;;;5.00
20058;BMP180;10189;49.546;7.906;2023-02-05T02:40:07;100035.00;;;5.10
20058;BMP180;10189;49.546;7.906;2023-02-05T02:42:46;100031.00;;;5.10
20058;BMP180;10189;49.546;7.906;2023-02-05T02:45:16;100022.00;;;5.20
20058;BMP180;10189;49.546;7.906;2023-02-05T02:47:51;100005.00;;;5.20
20058;BMP180;10189;49.546;7.906;2023-02-05T02:50:29;100008.00;;;5.20
20058;BMP180;10189;49.546;7.906;2023-02-05T02:53:25;100006.00;;;5.20
20058;BMP180;10189;49.546;7.906;2023-02-05T02:55:51;100009.00;;;5.40
20058;BMP180;10189;49.546;7.906;2023-02-05T02:58:36;100021.00;;;5.40
20058;BMP180;10189;49.546;7.906;2023-02-05T03:01:07;100020.00;;;5.40
20058;BMP180;10189;49.546;7.906;2023-02-05T03:03:41;100011.00;;;5.50
20058;BMP180;10189;49.546;7.906;2023-02-05T03:06:13;99995.00;;;5.50
20058;BMP180;10189;49.546;7.906;2023-02-05T03:09:04;99981.00;;;5.60
20058;BMP180;10189;49.546;7.906;2023-02-05T03:11:32;99988.00;;;5.70
20058;BMP180;10189;49.546;7.906;2023-02-05T03:13:59;99977.00;;;5.60
20058;BMP180;10189;49.546;7.906;2023-02-05T03:16:30;99976.00;;;5.50
20058;BMP180;10189;49.546;7.906;2023-02-05T03:18:57;99978.00;;;5.50
20058;BMP180;10189;49.546;7.906;2023-02-05T03:21:29;99985.00;;;5.50
20058;BMP180;10189;49.546;7.906;2023-02-05T03:23:57;99973.00;;;5.50
20058;BMP180;10189;49.546;7.906;2023-02-05T03:26:32;99976.00;;;5.60
20058;BMP180;10189;49.546;7.906;2023-02-05T03:29:15;99984.00;;;5.50
20058;BMP180;10189;49.546;7.906;2023-02-05T03:32:15;99987.00;;;5.70
20058;BMP180;10189;49.546;7.906;2023-02-05T03:40:58;100001.00;;;5.40
20058;BMP180;10189;49.546;7.906;2023-02-05T03:51:45;99974.00;;;5.60
20058;BMP180;10189;49.546;7.906;2023-02-05T03:54:27;99964.00;;;5.60
20058;BMP180;10189;49.546;7.906;2023-02-05T03:57:07;99962.00;;;5.60
20058;BMP180;10189;49.546;7.906;2023-02-05T03:59:38;99974.00;;;5.70
20058;BMP180;10189;49.546;7.906;2023-02-05T04:02:05;99959.00;;;5.60
20058;BMP180;10189;49.546;7.906;2023-02-05T04:04:37;99973.00;;;5.50
20058;BMP180;10189;49.546;7.906;2023-02-05T04:07:05;99981.00;;;5.40
20058;BMP180;10189;49.546;7.906;2023-02-05T04:09:31;99991.00;;;5.40
20058;BMP180;10189;49.546;7.906;2023-02-05T04:11:57;99993.00;;;5.40
20058;BMP180;10189;49.546;7.906;2023-02-05T04:14:24;100001.00;;;5.40
20058;BMP180;10189;49.546;7.906;2023-02-05T04:16:50;100008.00;;;5.40
20058;BMP180;10189;49.546;7.906;2023-02-05T04:19:19;99996.00;;;5.50
20058;BMP180;10189;49.546;7.906;2023-02-05T04:21:45;99991.00;;;5.60
20058;BMP180;10189;49.546;7.906;2023-02-05T04:24:11;99995.00;;;5.60
20058;BMP180;10189;49.546;7.906;2023-02-05T04:26:37;99996.00;;;5.60
20058;BMP180;10189;49.546;7.906;2023-02-05T04:29:05;99986.00;;;5.80
20058;BMP180;10189;49.546;7.906;2023-02-05T04:31:37;99992.00;;;5.80
20058;BMP180;10189;49.546;7.906;2023-02-05T04:34:03;99987.00;;;5.80
20058;BMP180;10189;49.546;7.906;2023-02-05T04:36:29;99972.00;;;5.80
20058;BMP180;10189;49.546;7.906;2023-02-05T04:38:55;99987.00;;;5.90
20058;BMP180;10189;49.546;7.906;2023-02-05T04:41:22;99988.00;;;5.90
20058;BMP180;10189;49.546;7.906;2023-02-05T04:43:47;99985.00;;;6.00
20058;BMP180;10189;49.546;7.906;2023-02-05T04:46:13;99972.00;;;6.10
20058;BMP180;10189;49.546;7.906;2023-02-05T04:48:39;99967.00;;;6.10
20058;BMP180;10189;49.546;7.906;2023-02-05T04:51:07;99959.00;;;6.10
20058;BMP180;10189;49.546;7.906;2023-02-05T04:53:33;99957.00;;;6.10
20058;BMP180;10189;49.546;7.906;2023-02-05T04:56:12;99961.00;;;6.00
20058;BMP180;10189;49.546;7.906;2023-02-05T04:58:39;99956.00;;;6.00
20058;BMP180;10189;49.546;7.906;2023-02-05T05:01:12;99967.00;;;6.00
20058;BMP180;10189;49.546;7.906;2023-02-05T05:03:39;99974.00;;;6.10
20058;BMP180;10189;49.546;7.906;2023-02-05T05:06:05;99958.00;;;6.10
20058;BMP180;10189;49.546;7.906;2023-02-05T05:08:32;99960.00;;;6.20
20058;BMP180;10189;49.546;7.906;2023-02-05T05:10:58;99969.00;;;6.30
20058;BMP180;10189;49.546;7.906;2023-02-05T05:13:25;99971.00;;;6.30
20058;BMP180;10189;49.546;7.906;2023-02-05T05:15:55;99971.00;;;6.30
20058;BMP180;10189;49.546;7.906;2023-02-05T05:18:22;99966.00;;;6.10
20058;BMP180;10189;49.546;7.906;2023-02-05T05:20:48;99980.00;;;6.20
20058;BMP180;10189;49.546;7.906;2023-02-05T05:23:14;99970.00;;;6.30
20058;BMP180;10189;49.546;7.906;2023-02-05T05:25:42;99977.00;;;6.30
20058;BMP180;10189;49.546;7.906;2023-02-05T05:28:09;99973.00;;;6.30
20058;BMP180;10189;49.546;7.906;2023-02-05T05:30:40;99990.00;;;6.20
20058;BMP180;10189;49.546;7.906;2023-02-05T05:33:06;99975.00;;;6.20
20058;BMP180;10189;49.546;7.906;2023-02-05T05:35:33;99967.00;;;6.30
20058;BMP180;10189;49.546;7.906;2023-02-05T05:37:59;99978.00;;;6.30
20058;BMP180;10189;49.546;7.906;2023-02-05T05:40:27;99973.00;;;6.40
20058;BMP180;10189;49.546;7.906;2023-02-05T05:43:14;99975.00;;;6.50
20058;BMP180;10189;49.546;7.906;2023-02-05T05:45:59;99973.00;;;6.50
20058;BMP180;10189;49.546;7.906;2023-02-05T05:48:26;99976.00;;;6.50
20058;BMP180;10189;49.546;7.906;2023-02-05T05:50:52;99976.00;;;6.60
20058;BMP180;10189;49.546;7.906;2023-02-05T05:53:18;99969.00;;;6.50
20058;BMP180;10189;49.546;7.906;2023-02-05T05:55:45;99956.00;;;6.40
20058;BMP180;10189;49.546;7.906;2023-02-05T05:58:11;99951.00;;;6.40
20058;BMP180;10189;49.546;7.906;2023-02-05T06:00:38;99966.00;;;6.40
20058;BMP180;10189;49.546;7.906;2023-02-05T06:03:05;99964.00;;;6.40
20058;BMP180;10189;49.546;7.906;2023-02-05T06:05:32;99959.00;;;6.40
20058;BMP180;10189;49.546;7.906;2023-02-05T06:07:58;99967.00;;;6.40
20058;BMP180;10189;49.546;7.906;2023-02-05T06:10:24;99980.00;;;6.40
20058;BMP180;10189;49.546;7.906;2023-02-05T06:12:50;99971.00;;;6.40
20058;BMP180;10189;49.546;7.906;2023-02-05T06:15:20;99970.00;;;6.50
20058;BMP180;10189;49.546;7.906;2023-02-05T06:17:47;99972.00;;;6.50
20058;BMP180;10189;49.546;7.906;2023-02-05T06:20:13;99968.00;;;6.50
20058;BMP180;10189;49.546;7.906;2023-02-05T06:22:40;99982.00;;;6.30
20058;BMP180;10189;49.546;7.906;2023-02-05T06:25:06;99978.00;;;6.30
20058;BMP180;10189;49.546;7.906;2023-02-05T06:27:32;99962.00;;;6.40
20058;BMP180;10189;49.546;7.906;2023-02-05T06:29:58;99963.00;;;6.40
20058;BMP180;10189;49.546;7.906;2023-02-05T06:32:24;99966.00;;;6.50
20058;BMP180;10189;49.546;7.906;2023-02-05T06:34:50;99969.00;;;6.40
20058;BMP180;10189;49.546;7.906;2023-02-05T06:37:16;99956.00;;;6.50
20058;BMP180;10189;49.546;7.906;2023-02-05T06:39:42;99959.00;;;6.50
20058;BMP180;10189;49.546;7.906;2023-02-05T06:42:08;99949.00;;;6.60
20058;BMP180;10189;49.546;7.906;2023-02-05T06:44:34;99943.00;;;6.50
20058;BMP180;10189;49.546;7.906;2023-02-05T06:47:01;99953.00;;;6.60
20058;BMP180;10189;49.546;7.906;2023-02-05T06:49:27;99941.00;;;6.60
20058;BMP180;10189;49.546;7.906;2023-02-05T06:51:53;99952.00;;;6.50
20058;BMP180;10189;49.546;7.906;2023-02-05T06:54:19;99940.00;;;6.50
20058;BMP180;10189;49.546;7.906;2023-02-05T06:56:45;99945.00;;;6.70
20058;BMP180;10189;49.546;7.906;2023-02-05T06:59:12;99936.00;;;6.70
20058;BMP180;10189;49.546;7.906;2023-02-05T07:01:39;99946.00;;;6.60
20058;BMP180;10189;49.546;7.906;2023-02-05T07:04:05;99946.00;;;6.50
20058;BMP180;10189;49.546;7.906;2023-02-05T07:06:31;99954.00;;;6.50
20058;BMP180;10189;49.546;7.906;2023-02-05T07:08:56;99943.00;;;6.60
20058;BMP180;10189;49.546;7.906;2023-02-05T07:11:25;99956.00;;;6.60
20058;BMP180;10189;49.546;7.906;2023-02-05T07:13:51;99951.00;;;6.60
20058;BMP180;10189;49.546;7.906;2023-02-05T07:16:17;99946.00;;;6.60
20058;BMP180;10189;49.546;7.906;2023-02-05T07:18:43;99943.00;;;6.60
20058;BMP180;10189;49.546;7.906;2023-02-05T07:21:13;99951.00;;;6.50
20058;BMP180;10189;49.546;7.906;2023-02-05T07:23:41;99946.00;;;6.50
20058;BMP180;10189;49.546;7.906;2023-02-05T07:26:12;99962.00;;;6.40
20058;BMP180;10189;49.546;7.906;2023-02-05T07:28:40;99973.00;;;6.40
20058;BMP180;10189;49.546;7.906;2023-02-05T07:31:12;99969.00;;;6.40
20058;BMP180;10189;49.546;7.906;2023-02-05T07:33:43;99971.00;;;6.40
20058;BMP180;10189;49.546;7.906;2023-02-05T07:36:11;99973.00;;;6.40
20058;BMP180;10189;49.546;7.906;2023-02-05T07:38:38;99965.00;;;6.50
20058;BMP180;10189;49.546;7.906;2023-02-05T07:41:06;99967.00;;;6.50
20058;BMP180;10189;49.546;7.906;2023-02-05T07:43:32;99951.00;;;6.50
20058;BMP180;10189;49.546;7.906;2023-02-05T07:46:03;99960.00;;;6.50
20058;BMP180;10189;49.546;7.906;2023-02-05T07:48:29;99951.00;;;6.40
20058;BMP180;10189;49.546;7.906;2023-02-05T07:50:55;99963.00;;;6.30
20058;BMP180;10189;49.546;7.906;2023-02-05T07:53:21;99952.00;;;6.40
20058;BMP180;10189;49.546;7.906;2023-02-05T07:55:47;99952.00;;;6.40
20058;BMP180;10189;49.546;7.906;2023-02-05T07:58:13;99958.00;;;6.50
20058;BMP180;10189;49.546;7.906;2023-02-05T08:00:39;99940.00;;;6.50
20058;BMP180;10189;49.546;7.906;2023-02-05T08:03:06;99939.00;;;6.60
20058;BMP180;10189;49.546;7.906;2023-02-05T08:05:32;99945.00;;;6.50
20058;BMP180;10189;49.546;7.906;2023-02-05T08:07:58;99938.00;;;6.60
20058;BMP180;10189;49.546;7.906;2023-02-05T08:10:24;99943.00;;;6.70
20058;BMP180;10189;49.546;7.906;2023-02-05T08:12:50;99934.00;;;6.60
20058;BMP180;10189;49.546;7.906;2023-02-05T08:15:16;99932.00;;;6.60
20058;BMP180;10189;49.546;7.906;2023-02-05T08:17:42;99940.00;;;6.80
20058;BMP180;10189;49.546;7.906;2023-02-05T08:20:09;99947.00;;;6.90
20058;BMP180;10189;49.546;7.906;2023-02-05T08:22:37;99932.00;;;6.80
20058;BMP180;10189;49.546;7.906;2023-02-05T08:25:07;99923.00;;;6.80
20058;BMP180;10189;49.546;7.906;2023-02-05T08:27:35;99926.00;;;6.90
20058;BMP180;10189;49.546;7.906;2023-02-05T08:30:03;99926.00;;;7.00
20058;BMP180;10189;49.546;7.906;2023-02-05T08:32:29;99921.00;;;6.90
20058;BMP180;10189;49.546;7.906;2023-02-05T08:34:55;99908.00;;;7.10
20058;BMP180;10189;49.546;7.906;2023-02-05T08:37:21;99897.00;;;7.10
20058;BMP180;10189;49.546;7.906;2023-02-05T08:39:47;99896.00;;;7.20
20058;BMP180;10189;49.546;7.906;2023-02-05T08:42:15;99900.00;;;7.20
20058;BMP180;10189;49.546;7.906;2023-02-05T08:44:41;99900.00;;;7.20
20058;BMP180;10189;49.546;7.906;2023-02-05T08:47:07;99898.00;;;7.20
20058;BMP180;10189;49.546;7.906;2023-02-05T08:49:33;99899.00;;;7.40
20058;BMP180;10189;49.546;7.906;2023-02-05T08:51:59;99905.00;;;7.40
20058;BMP180;10189;49.546;7.906;2023-02-05T08:54:25;99893.00;;;7.40
20058;BMP180;10189;49.546;7.906;2023-02-05T08:56:51;99902.00;;;7.40
20058;BMP180;10189;49.546;7.906;2023-02-05T08:59:18;99895.00;;;7.50
20058;BMP180;10189;49.546;7.906;2023-02-05T09:01:45;99889.00;;;7.40
20058;BMP180;10189;49.546;7.906;2023-02-05T09:04:17;99903.00;;;7.50
20058;BMP180;10189;49.546;7.906;2023-02-05T09:06:43;99899.00;;;7.50
20058;BMP180;10189;49.546;7.906;2023-02-05T09:09:09;99885.00;;;7.50
20058;BMP180;10189;49.546;7.906;2023-02-05T09:11:36;99895.00;;;7.40
20058;BMP180;10189;49.546;7.906;2023-02-05T09:14:03;99891.00;;;7.50
20058;BMP180;10189;49.546;7.906;2023-02-05T09:16:29;99888.00;;;7.40
20058;BMP180;10189;49.546;7.906;2023-02-05T09:18:57;99895.00;;;7.30
20058;BMP180;10189;49.546;7.906;2023-02-05T09:21:24;99888.00;;;7.30
20058;BMP180;10189;49.546;7.906;2023-02-05T09:23:52;99895.00;;;7.40
20058;BMP180;10189;49.546;7.906;2023-02-05T09:26:19;99891.00;;;7.40
20058;BMP180;10189;49.546;7.906;2023-02-05T09:28:45;99891.00;;;7.50
20058;BMP180;10189;49.546;7.906;2023-02-05T09:31:16;99888.00;;;7.50
20058;BMP180;10189;49.546;7.906;2023-02-05T09:33:43;99901.00;;;7.50
20058;BMP180;10189;49.546;7.906;2023-02-05T09:36:17;99892.00;;;7.50
20058;BMP180;10189;49.546;7.906;2023-02-05T09:38:43;99895.00;;;7.50
20058;BMP180;10189;49.546;7.906;2023-02-05T09:44:06;99875.00;;;7.60
20058;BMP180;10189;49.546;7.906;2023-02-05T09:47:05;99876.00;;;7.80
20058;BMP180;10189;49.546;7.906;2023-02-05T09:49:47;99872.00;;;8.10
20058;BMP180;10189;49.546;7.906;2023-02-05T09:52:21;99863.00;;;8.20
20058;BMP180;10189;49.546;7.906;2023-02-05T09:54:57;99862.00;;;8.40
20058;BMP180;10189;49.546;7.906;2023-02-05T09:57:38;99857.00;;;8.50
20058;BMP180;10189;49.546;7.906;2023-02-05T10:00:24;99859.00;;;8.60
20058;BMP180;10189;49.546;7.906;2023-02-05T10:03:30;99848.00;;;8.60
20058;BMP180;10189;49.546;7.906;2023-02-05T10:09:30;99837.00;;;8.80
20058;BMP180;10189;49.546;7.906;2023-02-05T10:21:25;99831.00;;;9.00
20058;BMP180;10189;49.546;7.906;2023-02-05T10:30:20;99808.00;;;9.70
20058;BMP180;10189;49.546;7.906;2023-02-05T10:32:59;99802.00;;;9.90
20058;BMP180;10189;49.546;7.906;2023-02-05T10:36:02;99804.00;;;9.90
20058;BMP180;10189;49.546;7.906;2023-02-05T10:38:38;99808.00;;;9.80
20058;BMP180;10189;49.546;7.906;2023-02-05T10:41:29;99797.00;;;9.70
20058;BMP180;10189;49.546;7.906;2023-02-05T10:46:47;99799.00;;;9.60
20058;BMP180;10189;49.546;7.906;2023-02-05T10:49:37;99790.00;;;9.50
20058;BMP180;10189;49.546;7.906;2023-02-05T10:52:11;99793.00;;;9.30
20058;BMP180;10189;49.546;7.906;2023-02-05T10:54:39;99795.00;;;9.20
20058;BMP180;10189;49.546;7.906;2023-02-05T10:57:16;99792.00;;;8.90
20058;BMP180;10189;49.546;7.906;2023-02-05T11:00:13;99804.00;;;8.70
20058;BMP180;10189;49.546;7.906;2023-02-05T11:02:46;99792.00;;;8.70
20058;BMP180;10189;49.546;7.906;2023-02-05T11:07:53;99787.00;;;8.50
20058;BMP180;10189;49.546;7.906;2023-02-05T11:10:26;99784.00;;;8.50
20058;BMP180;10189;49.546;7.906;2023-02-05T11:13:19;99791.00;;;8.40
20058;BMP180;10189;49.546;7.906;2023-02-05T11:16:03;99787.00;;;8.50
20058;BMP180;10189;49.546;7.906;2023-02-05T11:18:38;99785.00;;;8.40
20058;BMP180;10189;49.546;7.906;2023-02-05T11:21:06;99785.00;;;8.30
20058;BMP180;10189;49.546;7.906;2023-02-05T11:23:35;99778.00;;;8.20
20058;BMP180;10189;49.546;7.906;2023-02-05T11:26:15;99779.00;;;8.20
20058;BMP180;10189;49.546;7.906;2023-02-05T11:28:42;99772.00;;;8.10
20058;BMP180;10189;49.546;7.906;2023-02-05T11:31:28;99762.00;;;8.20
20058;BMP180;10189;49.546;7.906;2023-02-05T11:34:12;99759.00;;;8.20
20058;BMP180;10189;49.546;7.906;2023-02-05T11:36:53;99747.00;;;8.20
20058;BMP180;10189;49.546;7.906;2023-02-05T11:39:39;99751.00;;;8.30
20058;BMP180;10189;49.546;7.906;2023-02-05T11:42:25;99763.00;;;8.30
20058;BMP180;10189;49.546;7.906;2023-02-05T11:45:14;99748.00;;;8.30
20058;BMP180;10189;49.546;7.906;2023-02-05T11:47:48;99756.00;;;8.30
20058;BMP180;10189;49.546;7.906;2023-02-05T11:50:27;99745.00;;;8.30
20058;BMP180;10189;49.546;7.906;2023-02-05T11:53:06;99743.00;;;8.50
20058;BMP180;10189;49.546;7.906;2023-02-05T11:55:35;99740.00;;;8.50
20058;BMP180;10189;49.546;7.906;2023-02-05T11:58:05;99732.00;;;8.50
20058;BMP180;10189;49.546;7.906;2023-02-05T12:00:32;99745.00;;;8.50
20058;BMP180;10189;49.546;7.906;2023-02-05T12:03:17;99737.00;;;8.60
20058;BMP180;10189;49.546;7.906;2023-02-05T12:05:59;99744.00;;;8.50
20058;BMP180;10189;49.546;7.906;2023-02-05T12:08:50;99744.00;;;8.50
20058;BMP180;10189;49.546;7.906;2023-02-05T12:11:38;99747.00;;;8.60
20058;BMP180;10189;49.546;7.906;2023-02-05T12:14:45;99736.00;;;8.50
20058;BMP180;10189;49.546;7.906;2023-02-05T12:20:12;99725.00;;;8.40
20058;BMP180;10189;49.546;7.906;2023-02-05T12:23:20;99734.00;;;8.40
20058;BMP180;10189;49.546;7.906;2023-02-05T12:25:59;99722.00;;;8.20
20058;BMP180;10189;49.546;7.906;2023-02-05T12:35:19;99717.00;;;8.20
20058;BMP180;10189;49.546;7.906;2023-02-05T12:38:06;99716.00;;;8.30
20058;BMP180;10189;49.546;7.906;2023-02-05T12:43:42;99714.00;;;8.30
20058;BMP180;10189;49.546;7.906;2023-02-05T12:57:21;99724.00;;;8.20
20058;BMP180;10189;49.546;7.906;2023-02-05T13:00:06;99721.00;;;8.30
20058;BMP180;10189;49.546;7.906;2023-02-05T13:03:28;99715.00;;;8.30
20058;BMP180;10189;49.546;7.906;2023-02-05T13:06:00;99713.00;;;8.20
20058;BMP180;10189;49.546;7.906;2023-02-05T13:09:00;99711.00;;;8.20
20058;BMP180;10189;49.546;7.906;2023-02-05T13:14:16;99719.00;;;8.30
20058;BMP180;10189;49.546;7.906;2023-02-05T13:16:59;99726.00;;;8.40
20058;BMP180;10189;49.546;7.906;2023-02-05T13:19:56;99715.00;;;8.20
20058;BMP180;10189;49.546;7.906;2023-02-05T13:22:39;99721.00;;;8.30
20058;BMP180;10189;49.546;7.906;2023-02-05T13:25:33;99726.00;;;8.40
20058;BMP180;10189;49.546;7.906;2023-02-05T13:28:38;99729.00;;;8.40
20058;BMP180;10189;49.546;7.906;2023-02-05T13:31:37;99720.00;;;8.60
20058;BMP180;10189;49.546;7.906;2023-02-05T13:34:08;99722.00;;;8.80
20058;BMP180;10189;49.546;7.906;2023-02-05T13:39:49;99724.00;;;8.90
20058;BMP180;10189;49.546;7.906;2023-02-05T13:48:55;99722.00;;;8.70
20058;BMP180;10189;49.546;7.906;2023-02-05T14:00:03;99721.00;;;8.70
20058;BMP180;10189;49.546;7.906;2023-02-05T14:02:45;99702.00;;;8.80
20058;BMP180;10189;49.546;7.906;2023-02-05T14:05:14;99710.00;;;9.00
20058;BMP180;10189;49.546;7.906;2023-02-05T14:07:48;99708.00;;;9.00
20058;BMP180;10189;49.546;7.906;2023-02-05T14:10:32;99717.00;;;9.00
20058;BMP180;10189;49.546;7.906;2023-02-05T14:13:23;99725.00;;;9.10
20058;BMP180;10189;49.546;7.906;2023-02-05T14:15:51;99723.00;;;9.10
20058;BMP180;10189;49.546;7.906;2023-02-05T14:26:54;99733.00;;;8.70
20058;BMP180;10189;49.546;7.906;2023-02-05T14:29:43;99733.00;;;8.50
20058;BMP180;10189;49.546;7.906;2023-02-05T14:35:29;99739.00;;;8.40
20058;BMP180;10189;49.546;7.906;2023-02-05T14:38:15;99745.00;;;8.40
20058;BMP180;10189;49.546;7.906;2023-02-05T14:40:41;99744.00;;;8.30
20058;BMP180;10189;49.546;7.906;2023-02-05T14:43:34;99750.00;;;8.50
20058;BMP180;10189;49.546;7.906;2023-02-05T14:46:18;99750.00;;;8.60
20058;BMP180;10189;49.546;7.906;2023-02-05T14:48:46;99750.00;;;8.60
20058;BMP180;10189;49.546;7.906;2023-02-05T14:51:22;99753.00;;;8.90
20058;BMP180;10189;49.546;7.906;2023-02-05T14:54:18;99751.00;;;8.70
20058;BMP180;10189;49.546;7.906;2023-02-05T14:56:53;99748.00;;;8.60
20058;BMP180;10189;49.546;7.906;2023-02-05T15:02:01;99751.00;;;8.70
20058;BMP180;10189;49.546;7.906;2023-02-05T15:04:46;99759.00;;;8.50
20058;BMP180;10189;49.546;7.906;2023-02-05T15:07:24;99756.00;;;8.60
20058;BMP180;10189;49.546;7.906;2023-02-05T15:10:05;99758.00;;;8.60
20058;BMP180;10189;49.546;7.906;2023-02-05T15:13:17;99763.00;;;8.60
20058;BMP180;10189;49.546;7.906;2023-02-05T15:18:58;99778.00;;;8.70
20058;BMP180;10189;49.546;7.906;2023-02-05T15:21:29;99771.00;;;8.70
20058;BMP180;10189;49.546;7.906;2023-02-05T15:24:14;99767.00;;;8.70
20058;BMP180;10189;49.546;7.906;2023-02-05T15:27:06;99763.00;;;8.70
20058;BMP180;10189;49.546;7.906;2023-02-05T15:29:48;99761.00;;;8.80
20058;BMP180;10189;49.546;7.906;2023-02-05T15:32:27;99772.00;;;8.70
20058;BMP180;10189;49.546;7.906;2023-02-05T15:35:20;99778.00;;;8.70
20058;BMP180;10189;49.546;7.906;2023-02-05T15:37:54;99769.00;;;8.60
20058;BMP180;10189;49.546;7.906;2023-02-05T15:40:26;99766.00;;;8.70
20058;BMP180;10189;49.546;7.906;2023-02-05T15:45:30;99778.00;;;8.60
20058;BMP180;10189;49.546;7.906;2023-02-05T15:50:52;99785.00;;;8.40
20058;BMP180;10189;49.546;7.906;2023-02-05T15:53:50;99783.00;;;8.50
20058;BMP180;10189;49.546;7.906;2023-02-05T16:04:36;99798.00;;;8.20
20058;BMP180;10189;49.546;7.906;2023-02-05T16:07:27;99805.00;;;8.10
20058;BMP180;10189;49.546;7.906;2023-02-05T16:09:58;99804.00;;;8.10
20058;BMP180;10189;49.546;7.906;2023-02-05T16:12:25;99806.00;;;8.10
20058;BMP180;10189;49.546;7.906;2023-02-05T16:15:12;99808.00;;;8.10
20058;BMP180;10189;49.546;7.906;2023-02-05T16:17:46;99821.00;;;7.90
20058;BMP180;10189;49.546;7.906;2023-02-05T16:22:59;99835.00;;;7.90
20058;BMP180;10189;49.546;7.906;2023-02-05T16:25:51;99839.00;;;7.80
20058;BMP180;10189;49.546;7.906;2023-02-05T16:30:55;99851.00;;;7.80
20058;BMP180;10189;49.546;7.906;2023-02-05T16:35:54;99855.00;;;7.70
20058;BMP180;10189;49.546;7.906;2023-02-05T16:38:21;99864.00;;;7.70
20058;BMP180;10189;49.546;7.906;2023-02-05T16:40:51;99863.00;;;7.70
20058;BMP180;10189;49.546;7.906;2023-02-05T16:43:37;99878.00;;;7.60
20058;BMP180;10189;49.546;7.906;2023-02-05T16:48:48;99886.00;;;7.60
20058;BMP180;10189;49.546;7.906;2023-02-05T16:59:22;99907.00;;;7.50
20058;BMP180;10189;49.546;7.906;2023-02-05T17:01:50;99898.00;;;7.60
20058;BMP180;10189;49.546;7.906;2023-02-05T17:04:22;99915.00;;;7.50
20058;BMP180;10189;49.546;7.906;2023-02-05T17:06:53;99910.00;;;7.50
20058;BMP180;10189;49.546;7.906;2023-02-05T17:09:39;99922.00;;;7.50
20058;BMP180;10189;49.546;7.906;2023-02-05T17:15:00;99920.00;;;7.60
20058;BMP180;10189;49.546;7.906;2023-02-05T17:17:30;99913.00;;;7.60
20058;BMP180;10189;49.546;7.906;2023-02-05T17:23:06;99926.00;;;7.50